Aurelia, North Dakota
Current Conditions -  °F | °C
As of 7:35 AM on Saturday 25 Oct 2014 (Local Time) from K08D Reporting Station
NA  
Wind Chill: -3°   Ceiling: NA
Heat Index:   Visibility: 10mi
Dew Point: -1°   Wind: 6mph
Humidity: 93%   Direction: 270°W
Pressure: 30.12"   Gusts: NA
Location:  48.4598°N, 101.907°W
Report Text: K08D 251235Z AUTO 27005KT 10SM 00/M01 A3012 RMK AO2
Loading
Personal Weather Stations






























Interactive Weather Map
Tropical Storm Tracking
New forecast layout! Learn more

10-Day Weather Forecast

Advertisements
Track Severe Weather on mobile